createdAt,value
2023-04-02T00:04:42.529Z,81.80
2023-04-02T00:09:46.376Z,81.40
2023-04-02T00:14:54.684Z,81.90
2023-04-02T00:20:01.563Z,82.10
2023-04-02T00:25:13.489Z,82.20
2023-04-02T00:30:18.554Z,82.30
2023-04-02T00:35:27.506Z,82.20
2023-04-02T00:40:32.884Z,82.30
2023-04-02T00:45:39.657Z,82.40
2023-04-02T00:50:45.355Z,82.30
2023-04-02T00:55:50.099Z,81.80
2023-04-02T01:00:56.868Z,80.90
2023-04-02T01:06:04.161Z,80.80
2023-04-02T01:11:20.665Z,81.30
2023-04-02T01:16:36.500Z,81.80
2023-04-02T01:21:52.933Z,82.00
2023-04-02T01:26:58.758Z,82.10
2023-04-02T01:32:06.470Z,82.30
2023-04-02T01:37:24.428Z,82.50
2023-04-02T01:42:33.368Z,81.70
2023-04-02T01:47:39.353Z,82.20
2023-04-02T01:52:46.157Z,82.50
2023-04-02T01:57:52.164Z,82.70
2023-04-02T02:02:58.068Z,82.80
2023-04-02T02:08:02.149Z,82.90
2023-04-02T02:13:05.655Z,82.90
2023-04-02T02:18:13.169Z,83.00
2023-04-02T02:23:17.346Z,83.10
2023-04-02T02:28:24.856Z,82.90
2023-04-02T02:33:32.174Z,83.40
2023-04-02T02:38:45.520Z,83.50
2023-04-02T02:43:57.402Z,83.40
2023-04-02T02:49:04.507Z,83.50
2023-04-02T02:54:09.206Z,83.40
2023-04-02T02:59:15.186Z,83.30
2023-04-02T03:04:23.929Z,83.60
2023-04-02T03:09:36.164Z,83.40
2023-04-02T03:14:43.965Z,83.00
2023-04-02T03:19:54.358Z,82.30
2023-04-02T03:25:03.359Z,82.70
2023-04-02T03:30:23.051Z,82.80
2023-04-02T03:35:33.163Z,82.40
2023-04-02T03:40:42.562Z,82.20
2023-04-02T03:45:50.952Z,82.50
2023-04-02T03:51:01.002Z,82.60
2023-04-02T03:56:06.598Z,82.60
2023-04-02T04:01:17.489Z,82.90
2023-04-02T04:06:28.313Z,82.70
2023-04-02T04:11:34.919Z,82.50
2023-04-02T04:16:47.497Z,82.80
2023-04-02T04:21:57.157Z,83.10
2023-04-02T04:27:09.624Z,83.30
2023-04-02T04:32:27.279Z,83.10
2023-04-02T04:37:36.618Z,83.30
2023-04-02T04:42:43.083Z,83.40
2023-04-02T04:47:53.397Z,83.60
2023-04-02T04:52:58.220Z,83.80
2023-04-02T04:58:05.438Z,84.20
2023-04-02T05:03:17.663Z,84.60
2023-04-02T05:08:27.383Z,84.60
2023-04-02T05:13:37.142Z,84.60
2023-04-02T05:18:45.643Z,84.70
2023-04-02T05:23:53.548Z,85.10
2023-04-02T05:29:01.569Z,85.20
2023-04-02T05:34:05.254Z,85.10
2023-04-02T05:39:11.996Z,85.30
2023-04-02T05:44:21.104Z,84.70
2023-04-02T05:49:29.842Z,84.80
2023-04-02T05:54:39.290Z,84.80
2023-04-02T05:59:46.354Z,85.10
2023-04-02T06:04:55.724Z,84.80
2023-04-02T06:10:09.848Z,84.60
2023-04-02T06:15:15.215Z,83.70
2023-04-02T06:20:21.016Z,83.70
2023-04-02T06:25:31.201Z,83.80
2023-04-02T06:30:37.443Z,83.30
2023-04-02T06:35:46.705Z,83.10
2023-04-02T06:40:55.533Z,83.20
2023-04-02T06:46:06.171Z,82.60
2023-04-02T06:51:12.308Z,82.70
2023-04-02T06:56:24.871Z,82.20
2023-04-02T07:01:32.109Z,82.50
2023-04-02T07:06:35.635Z,82.30
2023-04-02T07:11:41.352Z,81.60
2023-04-02T07:16:45.466Z,81.00
2023-04-02T07:21:48.967Z,80.30
2023-04-02T07:26:54.015Z,80.30
2023-04-02T07:31:57.501Z,79.60
2023-04-02T07:37:02.625Z,80.10
2023-04-02T07:42:08.021Z,79.90
2023-04-02T07:47:11.550Z,79.80
2023-04-02T07:52:15.718Z,79.90
2023-04-02T07:57:20.705Z,78.90
2023-04-02T08:02:24.794Z,78.10
2023-04-02T08:07:29.029Z,78.60
2023-04-02T08:12:34.202Z,78.70
2023-04-02T08:17:37.654Z,79.70
2023-04-02T08:22:41.179Z,79.50
2023-04-02T08:27:48.121Z,79.70
2023-04-02T08:32:51.650Z,79.60
2023-04-02T08:37:55.130Z,79.80
2023-04-02T08:43:15.470Z,78.50
2023-04-02T08:48:18.965Z,78.60
2023-04-02T08:53:25.894Z,78.50
2023-04-02T08:58:43.158Z,78.30
2023-04-02T09:03:48.666Z,78.30
2023-04-02T09:08:54.138Z,77.50
2023-04-02T09:14:02.235Z,76.80
2023-04-02T09:19:24.386Z,77.10
2023-04-02T09:24:27.999Z,77.20
2023-04-02T09:29:44.617Z,77.40
2023-04-02T09:34:48.095Z,77.30
2023-04-02T09:39:51.703Z,77.00
2023-04-02T09:45:20.733Z,77.30
2023-04-02T09:50:31.689Z,76.50
2023-04-02T09:55:35.210Z,76.60
2023-04-02T10:00:42.258Z,75.70
2023-04-02T10:05:47.565Z,75.60
2023-04-02T10:10:54.231Z,75.50
2023-04-02T10:16:03.327Z,75.10
2023-04-02T10:21:07.618Z,75.00
2023-04-02T10:26:25.793Z,75.00
2023-04-02T10:31:38.917Z,75.00
2023-04-02T10:36:51.972Z,74.80
2023-04-02T10:42:00.812Z,74.50
2023-04-02T10:47:28.070Z,75.10
2023-04-02T10:52:37.274Z,74.40
2023-04-02T10:57:42.883Z,74.50
2023-04-02T11:02:52.368Z,73.40
2023-04-02T11:08:01.536Z,73.70
2023-04-02T11:13:14.790Z,73.90
2023-04-02T11:18:28.320Z,73.80
2023-04-02T11:23:33.697Z,73.60
2023-04-02T11:28:37.118Z,73.10
2023-04-02T11:33:45.586Z,73.10
2023-04-02T11:38:52.952Z,72.90
2023-04-02T11:44:02.685Z,72.60
2023-04-02T11:49:40.122Z,72.20
2023-04-02T11:54:44.069Z,73.00
2023-04-02T12:00:08.756Z,72.70
2023-04-02T12:05:22.350Z,73.10
2023-04-02T12:10:30.255Z,72.50
2023-04-02T12:15:39.339Z,72.00
2023-04-02T12:20:49.823Z,71.50
2023-04-02T12:26:01.315Z,72.10
2023-04-02T12:31:12.815Z,72.40
2023-04-02T12:36:22.063Z,72.30
2023-04-02T12:41:30.246Z,72.00
2023-04-02T12:46:36.406Z,72.40
2023-04-02T12:51:41.446Z,71.80
2023-04-02T12:56:45.012Z,71.80
2023-04-02T13:01:58.231Z,71.80
2023-04-02T13:07:03.038Z,71.60
2023-04-02T13:12:07.401Z,71.10
2023-04-02T13:17:38.426Z,71.40
2023-04-02T13:22:43.544Z,71.80
2023-04-02T13:27:46.933Z,71.70
2023-04-02T13:32:51.975Z,71.50
2023-04-02T13:37:57.232Z,71.00
2023-04-02T13:43:01.132Z,71.10
2023-04-02T13:48:05.914Z,71.40
2023-04-02T13:53:19.119Z,71.20
2023-04-02T13:58:22.914Z,71.20
2023-04-02T14:03:26.718Z,71.50
2023-04-02T14:08:42.794Z,71.60
2023-04-02T14:14:27.913Z,71.60
2023-04-02T14:19:46.326Z,71.30
2023-04-02T14:25:01.464Z,71.60
2023-04-02T14:30:16.064Z,71.70
2023-04-02T14:35:25.885Z,71.50
2023-04-02T14:40:37.868Z,71.80
2023-04-02T14:45:53.398Z,71.80
2023-04-02T14:51:02.271Z,71.60
2023-04-02T14:56:09.190Z,71.70
2023-04-02T15:01:17.097Z,71.70
2023-04-02T15:06:24.641Z,71.70
2023-04-02T15:11:32.995Z,71.40
2023-04-02T15:16:38.025Z,72.60
2023-04-02T15:22:09.297Z,71.30
2023-04-02T15:27:30.505Z,71.40
2023-04-02T15:32:39.042Z,71.40
2023-04-02T15:37:51.825Z,71.30
2023-04-02T15:43:01.415Z,71.00
2023-04-02T15:48:19.668Z,71.20
2023-04-02T15:53:35.237Z,71.10
2023-04-02T15:58:52.853Z,70.70
2023-04-02T16:04:21.177Z,70.70
2023-04-02T16:09:30.818Z,70.60
2023-04-02T16:14:46.618Z,69.90
2023-04-02T16:19:53.779Z,69.60
2023-04-02T16:25:01.695Z,69.10
2023-04-02T16:30:37.446Z,69.20
2023-04-02T16:35:47.302Z,69.40
2023-04-02T16:41:07.710Z,69.40
2023-04-02T16:46:38.255Z,69.30
2023-04-02T16:51:49.928Z,69.60
2023-04-02T16:57:10.074Z,69.90
2023-04-02T17:02:28.272Z,69.90
2023-04-02T17:07:38.058Z,70.60
2023-04-02T17:12:47.264Z,70.90
2023-04-02T17:17:52.675Z,71.20
2023-04-02T17:22:57.487Z,72.30
2023-04-02T17:28:02.744Z,71.50
2023-04-02T17:33:12.893Z,71.90
2023-04-02T17:38:22.809Z,72.00
2023-04-02T17:43:37.995Z,72.30
2023-04-02T17:48:47.367Z,72.30
2023-04-02T17:54:02.684Z,72.00
2023-04-02T17:59:21.788Z,72.00
2023-04-02T18:04:41.633Z,72.00
2023-04-02T18:09:51.304Z,71.70
2023-04-02T18:15:06.606Z,71.60
2023-04-02T18:20:24.645Z,71.40
2023-04-02T18:25:43.619Z,70.70
2023-04-02T18:30:53.231Z,69.90
2023-04-02T18:36:06.043Z,70.40
2023-04-02T18:41:22.884Z,70.20
2023-04-02T18:46:36.724Z,70.10
2023-04-02T18:51:41.532Z,69.90
2023-04-02T18:56:45.322Z,69.50
2023-04-02T19:01:53.402Z,69.40
2023-04-02T19:07:05.882Z,69.20
2023-04-02T19:12:17.189Z,68.50
2023-04-02T19:17:30.088Z,68.40
2023-04-02T19:22:45.503Z,68.20
2023-04-02T19:28:03.476Z,67.80
2023-04-02T19:33:15.395Z,68.30
2023-04-02T19:38:40.367Z,67.50
2023-04-02T19:43:44.051Z,66.80
2023-04-02T19:48:53.317Z,67.00
2023-04-02T19:53:58.448Z,66.90
2023-04-02T19:59:07.807Z,67.20
2023-04-02T20:04:20.553Z,66.80
2023-04-02T20:09:25.478Z,66.40
2023-04-02T20:14:28.819Z,66.30
2023-04-02T20:19:32.233Z,66.30
2023-04-02T20:24:36.932Z,66.60
2023-04-02T20:29:42.337Z,66.90
2023-04-02T20:34:47.040Z,67.00
2023-04-02T20:39:53.298Z,66.50
2023-04-02T20:44:56.748Z,65.50
2023-04-02T20:50:00.171Z,64.40
2023-04-02T20:55:06.447Z,62.40
2023-04-02T21:00:11.973Z,63.30
2023-04-02T21:05:15.580Z,64.00
2023-04-02T21:10:21.305Z,63.90
2023-04-02T21:15:24.775Z,62.90
2023-04-02T21:20:28.218Z,61.30
2023-04-02T21:25:32.994Z,61.20
2023-04-02T21:30:36.439Z,61.50
2023-04-02T21:35:39.832Z,61.50
2023-04-02T21:40:45.256Z,62.00
2023-04-02T21:45:48.752Z,61.60
2023-04-02T21:50:52.130Z,61.90
2023-04-02T21:56:03.156Z,61.90
2023-04-02T22:01:11.103Z,61.00
2023-04-02T22:06:20.832Z,61.80
2023-04-02T22:11:27.805Z,62.00
2023-04-02T22:16:33.612Z,62.10
2023-04-02T22:21:38.163Z,61.90
2023-04-02T22:26:43.264Z,62.00
2023-04-02T22:31:47.526Z,62.30
2023-04-02T22:36:50.946Z,62.30
2023-04-02T22:41:55.635Z,61.70
2023-04-02T22:46:59.022Z,61.90
2023-04-02T22:52:05.757Z,62.10
2023-04-02T22:57:11.403Z,61.90
2023-04-02T23:02:14.877Z,62.20
2023-04-02T23:07:18.670Z,61.80
2023-04-02T23:12:23.386Z,61.70
2023-04-02T23:17:27.067Z,62.00
2023-04-02T23:22:30.497Z,61.60
2023-04-02T23:27:36.016Z,62.00
2023-04-02T23:32:39.671Z,62.40
2023-04-02T23:37:43.099Z,62.40
2023-04-02T23:42:48.101Z,62.70
2023-04-02T23:47:51.627Z,62.90
2023-04-02T23:52:55.067Z,63.40
2023-04-02T23:57:59.842Z,63.40
